Time;durP1;ratioP1;P1;durP2;ratioP2;P2;SDS_P1;SDS_P2;PMS_P1;PMS_P2;Temp;Humidity;BMP_temperature;BMP_pressure;BME280_temperature;BME280_humidity;BME280_pressure;Samples;Min_cycle;Max_cycle;Signal;HPM_P1;HPM_P2
2021/10/22 09:39:22;;;;;;;;;63.00;50.00;;;;;;;;5137998;27;112362;-73
2021/10/22 09:43:31;;;;;;;;;56.00;43.00;;;;;;;;5140234;27;112390;-75
2021/10/22 09:46:08;;;;;;;;;47.25;40.75;;;;;;;;5118611;27;112435;-76
2021/10/22 09:48:34;;;;;;;;;45.25;39.75;;;;;;;;5119226;27;111759;-82
2021/10/22 09:51:18;;;;;;;;;46.00;40.25;;;;;;;;5119221;27;113163;-81
2021/10/22 09:53:45;;;;;;;;;48.50;40.50;;;;;;;;5108952;27;114319;-81
2021/10/22 09:56:17;;;;;;;;;48.50;40.75;;;;;;;;5079665;27;112541;-79
2021/10/22 09:58:52;;;;;;;;;53.25;45.75;;;;;;;;5146394;27;111775;-80
2021/10/22 10:01:18;;;;;;;;;51.75;41.25;;;;;;;;5199080;27;8762;-73
2021/10/22 10:03:43;;;;;;;;;44.25;37.50;;;;;;;;5198762;27;11447;-76
2021/10/22 10:06:09;;;;;;;;;49.25;41.00;;;;;;;;5198609;27;8666;-80
2021/10/22 10:08:37;;;;;;;;;40.75;36.50;;;;;;;;5198859;27;8646;-78
2021/10/22 10:11:03;;;;;;;;;44.50;38.50;;;;;;;;5199250;27;8694;-77
2021/10/22 10:13:35;;;;;;;;;40.50;36.75;;;;;;;;5198992;27;11408;-75
2021/10/22 10:16:01;;;;;;;;;38.50;35.00;;;;;;;;5198706;27;11339;-76
2021/10/22 10:18:56;;;;;;;;;33.75;30.25;;;;;;;;5139876;27;111955;-73
2021/10/22 10:21:22;;;;;;;;;30.25;29.25;;;;;;;;5118348;27;112934;-76
2021/10/22 10:23:48;;;;;;;;;28.75;25.75;;;;;;;;5118618;27;111945;-78
2021/10/22 10:26:17;;;;;;;;;24.25;20.75;;;;;;;;5118977;27;111779;-76
2021/10/22 10:28:43;;;;;;;;;25.75;21.25;;;;;;;;5117803;27;114077;-78
2021/10/22 10:31:27;;;;;;;;;26.50;23.25;;;;;;;;5117881;27;112057;-77
2021/10/22 10:33:53;;;;;;;;;21.50;21.25;;;;;;;;4898827;27;113576;-78
2021/10/22 10:37:25;;;;;;;;;22.25;22.25;;;;;;;;4876592;27;112044;-75
2021/10/22 10:39:53;;;;;;;;;23.25;20.50;;;;;;;;5041373;27;113203;-78
2021/10/22 10:42:28;;;;;;;;;24.50;20.25;;;;;;;;5045660;27;111757;-78
2021/10/22 10:44:55;;;;;;;;;25.25;20.25;;;;;;;;4935543;27;112029;-78
2021/10/22 10:47:26;;;;;;;;;22.00;21.00;;;;;;;;5014978;27;113642;-73
2021/10/22 10:49:52;;;;;;;;;23.75;21.50;;;;;;;;5016304;27;112039;-74
2021/10/22 10:52:35;;;;;;;;;24.75;21.00;;;;;;;;5016357;28;112184;-75
2021/10/22 10:55:13;;;;;;;;;16.50;15.00;;;;;;;;5015511;28;112428;-74
2021/10/22 10:57:52;;;;;;;;;18.00;17.00;;;;;;;;5020199;27;111729;-74
2021/10/22 11:00:19;;;;;;;;;16.50;14.25;;;;;;;;4985988;27;113674;-74
2021/10/22 11:03:05;;;;;;;;;13.00;12.25;;;;;;;;5035641;27;111818;-74
2021/10/22 11:05:50;;;;;;;;;10.50;10.00;;;;;;;;5036948;27;111822;-73
2021/10/22 11:08:22;;;;;;;;;11.00;11.00;;;;;;;;5035591;27;112847;-71
2021/10/22 11:11:01;;;;;;;;;13.75;10.75;;;;;;;;5036185;27;111887;-72
2021/10/22 11:13:41;;;;;;;;;7.00;6.50;;;;;;;;5036655;27;111836;-71
2021/10/22 11:16:07;;;;;;;;;3.25;3.25;;;;;;;;5027277;27;115626;-72
2021/10/22 11:18:35;;;;;;;;;9.50;7.00;;;;;;;;5052430;27;112593;-72
2021/10/22 11:21:00;;;;;;;;;2.75;2.00;;;;;;;;5038038;27;112663;-72
2021/10/22 11:23:26;;;;;;;;;6.00;6.00;;;;;;;;5032647;27;113600;-71
2021/10/22 11:25:54;;;;;;;;;7.75;5.75;;;;;;;;5034830;27;113344;-71
2021/10/22 11:28:42;;;;;;;;;5.25;5.25;;;;;;;;5044756;27;115724;-71
2021/10/22 11:31:07;;;;;;;;;6.00;5.75;;;;;;;;5017127;27;111861;-71
2021/10/22 11:33:32;;;;;;;;;6.25;6.00;;;;;;;;5017358;28;111961;-72
2021/10/22 11:35:58;;;;;;;;;5.50;5.50;;;;;;;;5013776;28;116772;-72
2021/10/22 11:38:24;;;;;;;;;5.25;4.00;;;;;;;;5017054;28;112966;-72
2021/10/22 11:40:49;;;;;;;;;3.25;3.25;;;;;;;;5016886;28;111961;-72
2021/10/22 11:43:16;;;;;;;;;5.00;4.00;;;;;;;;5020237;27;112955;-73
2021/10/22 11:45:42;;;;;;;;;3.50;3.50;;;;;;;;5035350;27;111872;-72
2021/10/22 11:48:10;;;;;;;;;5.50;4.50;;;;;;;;5023918;27;112359;-71
2021/10/22 11:50:37;;;;;;;;;5.00;5.00;;;;;;;;5023746;28;111749;-71
2021/10/22 11:53:10;;;;;;;;;5.75;4.25;;;;;;;;5023030;27;113381;-72
2021/10/22 11:55:35;;;;;;;;;6.75;5.75;;;;;;;;5032729;27;115768;-75
2021/10/22 11:58:05;;;;;;;;;6.25;6.25;;;;;;;;5014429;28;114409;-74
2021/10/22 12:00:31;;;;;;;;;5.75;5.00;;;;;;;;5011074;28;112696;-74
2021/10/22 12:02:56;;;;;;;;;5.50;5.50;;;;;;;;5014030;28;112938;-75
2021/10/22 12:05:22;;;;;;;;;4.25;4.00;;;;;;;;5017084;28;112050;-75
2021/10/22 12:07:49;;;;;;;;;5.00;5.00;;;;;;;;5010518;28;112472;-74
2021/10/22 12:10:15;;;;;;;;;4.25;4.25;;;;;;;;5012551;27;112188;-76
2021/10/22 12:12:48;;;;;;;;;7.75;5.00;;;;;;;;5012864;28;112345;-76
2021/10/22 12:15:32;;;;;;;;;5.00;5.00;;;;;;;;5003728;28;114100;-77
2021/10/22 12:18:00;;;;;;;;;9.00;6.50;;;;;;;;5002525;28;111756;-75
2021/10/22 12:20:26;;;;;;;;;8.25;4.75;;;;;;;;5003063;28;111851;-75
2021/10/22 12:22:56;;;;;;;;;3.00;2.25;;;;;;;;5001939;28;113150;-79
2021/10/22 12:25:22;;;;;;;;;4.00;3.25;;;;;;;;5003197;28;111991;-75
2021/10/22 12:27:52;;;;;;;;;5.50;5.50;;;;;;;;5003666;28;114080;-76
2021/10/22 12:30:22;;;;;;;;;4.50;4.50;;;;;;;;5000710;28;111960;-75
2021/10/22 12:32:50;;;;;;;;;6.25;4.75;;;;;;;;5007070;28;112908;-74
2021/10/22 12:35:18;;;;;;;;;4.75;4.75;;;;;;;;5012042;27;113057;-74
2021/10/22 12:37:56;;;;;;;;;7.50;6.25;;;;;;;;5017453;28;111896;-74
2021/10/22 12:40:23;;;;;;;;;5.25;5.25;;;;;;;;5010804;28;112828;-74
2021/10/22 12:43:07;;;;;;;;;5.00;5.00;;;;;;;;4975279;27;113650;-74
2021/10/22 12:45:33;;;;;;;;;9.00;4.25;;;;;;;;5007357;28;112537;-74
2021/10/22 12:48:04;;;;;;;;;5.00;4.25;;;;;;;;5005644;28;112283;-73
2021/10/22 12:50:32;;;;;;;;;5.00;4.00;;;;;;;;5015565;28;112915;-74
2021/10/22 12:52:59;;;;;;;;;3.75;3.75;;;;;;;;5013448;28;113191;-74
2021/10/22 12:55:26;;;;;;;;;3.50;3.50;;;;;;;;5012885;28;112640;-75
2021/10/22 12:57:52;;;;;;;;;2.75;2.00;;;;;;;;5037849;27;112243;-75
2021/10/22 13:00:22;;;;;;;;;2.00;2.00;;;;;;;;5019335;28;115450;-75
2021/10/22 13:02:47;;;;;;;;;2.75;2.00;;;;;;;;5021055;27;113795;-75
2021/10/22 13:05:17;;;;;;;;;3.75;2.00;;;;;;;;5021997;28;112235;-73
2021/10/22 13:07:59;;;;;;;;;2.00;2.00;;;;;;;;4953479;27;112911;-74
2021/10/22 13:13:11;;;;;;;;;3.00;3.00;;;;;;;;5021448;27;111896;-75
2021/10/22 13:20:55;;;;;;;;;1.25;1.25;;;;;;;;5022502;28;111881;-81
2021/10/22 13:23:21;;;;;;;;;2.75;2.25;;;;;;;;5021153;28;112830;-80
2021/10/22 13:25:47;;;;;;;;;3.00;1.50;;;;;;;;5022221;27;111817;-80
2021/10/22 13:28:19;;;;;;;;;2.00;2.00;;;;;;;;5012551;27;112198;-80
2021/10/22 13:30:50;;;;;;;;;5.00;2.00;;;;;;;;5008542;28;116649;-78
2021/10/22 13:33:16;;;;;;;;;4.25;2.50;;;;;;;;5014660;28;112302;-79
2021/10/22 13:35:42;;;;;;;;;2.00;2.00;;;;;;;;5003448;28;113813;-80
2021/10/22 13:38:10;;;;;;;;;2.00;2.00;;;;;;;;4977415;27;112261;-75
2021/10/22 13:40:35;;;;;;;;;1.75;1.75;;;;;;;;5042104;27;112403;-76
2021/10/22 13:43:00;;;;;;;;;2.00;2.00;;;;;;;;5031372;27;112298;-78
2021/10/22 13:45:26;;;;;;;;;1.75;1.00;;;;;;;;5042628;27;112061;-74
2021/10/22 13:47:52;;;;;;;;;2.00;2.00;;;;;;;;5042189;27;112008;-76
2021/10/22 13:50:17;;;;;;;;;2.50;2.50;;;;;;;;5038931;27;112293;-76
2021/10/22 13:52:42;;;;;;;;;2.50;2.50;;;;;;;;5041077;27;111713;-75
2021/10/22 13:55:08;;;;;;;;;5.50;2.50;;;;;;;;5026228;27;112483;-77
2021/10/22 13:57:33;;;;;;;;;9.50;8.25;;;;;;;;5019570;27;112139;-76
2021/10/22 13:59:58;;;;;;;;;1.00;1.00;;;;;;;;5020699;27;112115;-81
2021/10/22 14:02:24;;;;;;;;;1.25;1.25;;;;;;;;5019740;27;112640;-77
2021/10/22 14:04:49;;;;;;;;;3.00;1.00;;;;;;;;5020426;27;111859;-77
2021/10/22 14:07:14;;;;;;;;;1.25;1.25;;;;;;;;5021894;27;111682;-75
2021/10/22 14:09:40;;;;;;;;;0.00;0.00;;;;;;;;5016980;27;115202;-75
2021/10/22 14:12:18;;;;;;;;;2.75;2.00;;;;;;;;5021315;27;112933;-75
2021/10/22 14:28:55;;;;;;;;;3.75;2.00;;;;;;;;5017609;27;111822;-73
2021/10/22 14:31:20;;;;;;;;;4.50;2.00;;;;;;;;5018629;28;114161;-73
2021/10/22 14:33:45;;;;;;;;;2.25;2.25;;;;;;;;5021574;27;112127;-72
2021/10/22 14:36:11;;;;;;;;;3.00;3.00;;;;;;;;5019352;28;114430;-71
2021/10/22 14:38:36;;;;;;;;;1.25;1.25;;;;;;;;5020185;27;113510;-72
2021/10/22 14:41:01;;;;;;;;;3.00;2.00;;;;;;;;5025114;27;112066;-82
2021/10/22 14:43:42;;;;;;;;;2.75;2.00;;;;;;;;5020866;28;112605;-68
2021/10/22 14:48:33;;;;;;;;;3.25;3.00;;;;;;;;5020766;28;111882;-72
2021/10/22 14:51:03;;;;;;;;;3.00;3.00;;;;;;;;5019750;28;112301;-70
2021/10/22 14:56:23;;;;;;;;;2.25;2.00;;;;;;;;5006429;27;113302;-74
2021/10/22 14:58:48;;;;;;;;;1.75;1.75;;;;;;;;5017383;28;112482;-74
2021/10/22 15:01:14;;;;;;;;;1.00;1.00;;;;;;;;5022800;28;112097;-74
2021/10/22 15:03:40;;;;;;;;;1.00;1.00;;;;;;;;5019807;27;113680;-75
2021/10/22 15:06:05;;;;;;;;;2.00;2.00;;;;;;;;5020392;27;112005;-74
2021/10/22 15:08:30;;;;;;;;;2.50;2.00;;;;;;;;5020621;27;113286;-74
2021/10/22 15:10:56;;;;;;;;;2.25;1.00;;;;;;;;5019803;28;112561;-74
2021/10/22 15:13:21;;;;;;;;;1.00;1.00;;;;;;;;5020764;27;112088;-74
2021/10/22 15:15:47;;;;;;;;;3.50;3.50;;;;;;;;5019367;28;114319;-74
2021/10/22 15:18:12;;;;;;;;;4.00;3.00;;;;;;;;5019412;27;112394;-74
2021/10/22 15:20:38;;;;;;;;;1.75;1.00;;;;;;;;5020441;27;111620;-74
2021/10/22 15:23:04;;;;;;;;;1.00;1.00;;;;;;;;5024961;27;112311;-74
2021/10/22 15:25:29;;;;;;;;;1.00;1.00;;;;;;;;5024676;27;111895;-75
2021/10/22 15:27:55;;;;;;;;;1.00;0.00;;;;;;;;5024163;27;112813;-74
2021/10/22 15:30:20;;;;;;;;;1.25;1.25;;;;;;;;5023373;28;112615;-75
2021/10/22 15:32:46;;;;;;;;;1.00;1.00;;;;;;;;5023970;28;111776;-74
2021/10/22 15:35:11;;;;;;;;;2.50;1.50;;;;;;;;5023425;27;111826;-74
2021/10/22 15:37:36;;;;;;;;;1.50;1.00;;;;;;;;5022881;27;112317;-74
2021/10/22 15:40:03;;;;;;;;;2.50;1.50;;;;;;;;5020599;27;111837;-75
2021/10/22 15:42:28;;;;;;;;;2.00;2.00;;;;;;;;5023343;27;112967;-75
2021/10/22 15:44:54;;;;;;;;;2.50;2.50;;;;;;;;5025770;27;113781;-74
2021/10/22 15:47:20;;;;;;;;;2.00;2.00;;;;;;;;5023489;27;113348;-74
2021/10/22 15:49:51;;;;;;;;;5.25;3.50;;;;;;;;5022780;27;112852;-75
2021/10/22 15:52:18;;;;;;;;;7.25;3.00;;;;;;;;5023371;27;111801;-75
2021/10/22 15:54:50;;;;;;;;;4.50;4.00;;;;;;;;5022974;27;112825;-75
2021/10/22 15:57:15;;;;;;;;;3.50;3.00;;;;;;;;5022556;27;113821;-76
2021/10/22 15:59:40;;;;;;;;;4.50;3.50;;;;;;;;5023744;27;111839;-87
2021/10/22 16:02:06;;;;;;;;;4.50;4.50;;;;;;;;5024220;28;112480;-83
2021/10/22 16:04:31;;;;;;;;;7.00;5.00;;;;;;;;5039287;27;115150;-85
2021/10/22 16:09:26;;;;;;;;;6.50;5.75;;;;;;;;5021934;27;112155;-76
2021/10/22 16:11:53;;;;;;;;;10.75;7.00;;;;;;;;5023122;27;111727;-84
2021/10/22 16:19:15;;;;;;;;;6.00;6.00;;;;;;;;5032410;27;112021;-71
2021/10/22 16:21:40;;;;;;;;;8.75;6.50;;;;;;;;5033341;27;112243;-70
2021/10/22 16:24:05;;;;;;;;;7.25;7.25;;;;;;;;5032572;27;112328;-70
2021/10/22 16:26:31;;;;;;;;;7.25;5.25;;;;;;;;5031853;27;111848;-70
2021/10/22 16:28:56;;;;;;;;;9.25;8.00;;;;;;;;5036290;27;111882;-71
2021/10/22 16:31:22;;;;;;;;;12.50;7.25;;;;;;;;5032571;27;112018;-70
2021/10/22 16:36:12;;;;;;;;;7.75;7.75;;;;;;;;5020832;28;112273;-72
2021/10/22 16:38:38;;;;;;;;;7.25;6.50;;;;;;;;5022888;27;111680;-71
2021/10/22 16:41:04;;;;;;;;;10.50;7.50;;;;;;;;5022517;28;111875;-72
2021/10/22 16:43:30;;;;;;;;;7.50;6.50;;;;;;;;5022101;28;112124;-73
2021/10/22 16:45:55;;;;;;;;;8.00;8.00;;;;;;;;5023008;27;111784;-77
2021/10/22 16:48:24;;;;;;;;;13.00;11.00;;;;;;;;5022892;28;112152;-75
2021/10/22 16:50:50;;;;;;;;;8.50;7.50;;;;;;;;5025401;28;112419;-76
2021/10/22 16:53:15;;;;;;;;;11.25;9.00;;;;;;;;5023432;27;112011;-74
2021/10/22 16:55:41;;;;;;;;;3.00;3.00;;;;;;;;5021877;27;112270;-73
2021/10/22 16:58:06;;;;;;;;;8.00;8.00;;;;;;;;5031997;27;112085;-72
2021/10/22 17:00:31;;;;;;;;;7.75;7.75;;;;;;;;5041030;27;112254;-72
2021/10/22 17:02:57;;;;;;;;;11.75;10.75;;;;;;;;5041230;27;112292;-73
2021/10/22 17:05:25;;;;;;;;;7.25;7.25;;;;;;;;5039897;27;111844;-75
2021/10/22 17:07:51;;;;;;;;;10.75;10.00;;;;;;;;5039056;27;113787;-73
2021/10/22 17:10:16;;;;;;;;;18.75;12.25;;;;;;;;5045432;27;113574;-85
2021/10/22 17:12:41;;;;;;;;;13.00;10.25;;;;;;;;5042229;27;113296;-80
2021/10/22 17:15:07;;;;;;;;;13.50;11.50;;;;;;;;5042508;27;112718;-84
2021/10/22 17:17:33;;;;;;;;;11.00;9.50;;;;;;;;5042516;27;111813;-82
2021/10/22 17:19:58;;;;;;;;;13.00;11.00;;;;;;;;5042119;27;112019;-82
2021/10/22 17:22:24;;;;;;;;;15.25;12.25;;;;;;;;5040581;27;112550;-79
2021/10/22 17:24:49;;;;;;;;;12.00;12.00;;;;;;;;5041365;27;111571;-79
2021/10/22 17:27:15;;;;;;;;;12.75;10.75;;;;;;;;5041812;27;111998;-79
2021/10/22 17:29:41;;;;;;;;;13.50;10.75;;;;;;;;5040154;27;112293;-78
2021/10/22 17:32:07;;;;;;;;;12.00;11.25;;;;;;;;5045913;27;112270;-78
2021/10/22 17:34:32;;;;;;;;;11.25;11.00;;;;;;;;5040852;27;112355;-78
2021/10/22 17:36:57;;;;;;;;;11.75;11.00;;;;;;;;5041301;27;112183;-80
2021/10/22 17:39:23;;;;;;;;;9.00;9.00;;;;;;;;5041944;27;112390;-77
2021/10/22 17:41:48;;;;;;;;;11.00;8.00;;;;;;;;5039794;27;114011;-76
2021/10/22 17:44:14;;;;;;;;;10.75;10.75;;;;;;;;5042138;27;112628;-75
2021/10/22 17:46:41;;;;;;;;;13.50;9.50;;;;;;;;5040800;27;111821;-75
2021/10/22 17:49:06;;;;;;;;;13.00;13.00;;;;;;;;5040623;27;113174;-76
2021/10/22 17:51:32;;;;;;;;;11.75;11.25;;;;;;;;5041037;27;111954;-78
2021/10/22 17:53:57;;;;;;;;;14.00;14.00;;;;;;;;5044140;27;112784;-78
2021/10/22 17:56:22;;;;;;;;;13.25;9.75;;;;;;;;5040764;27;111889;-78
2021/10/22 17:58:48;;;;;;;;;12.25;11.75;;;;;;;;5040867;27;112567;-77
2021/10/22 18:01:14;;;;;;;;;12.00;10.50;;;;;;;;5039402;27;113484;-77
2021/10/22 18:03:40;;;;;;;;;21.00;16.00;;;;;;;;5038240;27;112461;-78
2021/10/22 18:06:06;;;;;;;;;24.75;16.25;;;;;;;;5023834;27;112505;-78
2021/10/22 18:08:32;;;;;;;;;16.25;15.00;;;;;;;;5031523;27;112426;-78
2021/10/22 18:11:02;;;;;;;;;14.00;11.75;;;;;;;;5032974;27;111965;-78
2021/10/22 18:13:28;;;;;;;;;19.25;17.75;;;;;;;;5031212;27;112530;-81
2021/10/22 18:15:54;;;;;;;;;16.25;15.50;;;;;;;;5034899;27;112878;-80
2021/10/22 18:18:20;;;;;;;;;14.50;14.00;;;;;;;;5037726;27;111914;-80
2021/10/22 18:20:46;;;;;;;;;18.25;15.25;;;;;;;;5040666;27;113081;-78
2021/10/22 18:23:11;;;;;;;;;13.25;13.25;;;;;;;;5040572;27;112149;-76
2021/10/22 18:25:38;;;;;;;;;13.50;12.00;;;;;;;;5041459;27;112295;-76
2021/10/22 18:28:04;;;;;;;;;15.00;12.50;;;;;;;;5039797;27;112704;-77
2021/10/22 18:30:32;;;;;;;;;21.00;14.50;;;;;;;;5056125;27;112489;-75
2021/10/22 18:32:57;;;;;;;;;13.75;13.75;;;;;;;;5041204;27;112135;-78
2021/10/22 18:35:22;;;;;;;;;16.50;14.75;;;;;;;;5039351;27;112368;-81
2021/10/22 18:37:48;;;;;;;;;16.00;14.00;;;;;;;;5060323;27;112015;-77
2021/10/22 18:40:13;;;;;;;;;12.00;11.50;;;;;;;;5039257;27;114845;-77
2021/10/22 18:42:39;;;;;;;;;16.75;16.00;;;;;;;;5040940;27;111640;-77
2021/10/22 18:45:05;;;;;;;;;17.50;15.75;;;;;;;;5039974;27;112111;-75
2021/10/22 18:47:31;;;;;;;;;17.75;16.25;;;;;;;;5040037;27;112639;-77
2021/10/22 18:49:59;;;;;;;;;19.00;16.00;;;;;;;;5057645;27;112400;-77
2021/10/22 18:52:25;;;;;;;;;16.75;16.75;;;;;;;;5040383;27;112973;-77
2021/10/22 18:54:51;;;;;;;;;18.75;18.75;;;;;;;;5039227;27;112590;-75
2021/10/22 18:57:18;;;;;;;;;32.25;25.00;;;;;;;;5042022;27;113015;-78
2021/10/22 18:59:43;;;;;;;;;23.25;19.50;;;;;;;;5045208;27;112277;-78
2021/10/22 19:02:09;;;;;;;;;20.00;17.50;;;;;;;;5044057;27;112200;-78
2021/10/22 19:04:35;;;;;;;;;20.75;19.00;;;;;;;;5059394;27;114266;-81
2021/10/22 19:07:01;;;;;;;;;17.00;14.25;;;;;;;;5042950;27;114218;-79
2021/10/22 19:09:27;;;;;;;;;15.00;14.50;;;;;;;;5043880;27;112195;-85
2021/10/22 19:11:53;;;;;;;;;20.50;18.25;;;;;;;;5042899;27;114022;-75
2021/10/22 19:14:19;;;;;;;;;19.75;18.75;;;;;;;;5042160;27;112485;-76
2021/10/22 19:16:44;;;;;;;;;17.25;16.00;;;;;;;;5042775;27;112401;-75
2021/10/22 19:19:10;;;;;;;;;17.00;15.75;;;;;;;;5045377;27;112283;-84
2021/10/22 19:21:36;;;;;;;;;23.75;17.75;;;;;;;;5043124;27;112495;-76
2021/10/22 19:24:09;;;;;;;;;19.25;16.25;;;;;;;;5043011;27;112416;-82
2021/10/22 19:26:35;;;;;;;;;19.25;17.50;;;;;;;;5058916;27;115317;-84
2021/10/22 19:29:00;;;;;;;;;23.50;20.25;;;;;;;;5059374;27;112460;-83
2021/10/22 19:31:26;;;;;;;;;19.25;17.50;;;;;;;;5057644;27;115645;-84
2021/10/22 19:33:52;;;;;;;;;18.00;18.00;;;;;;;;5042460;27;112942;-81
2021/10/22 19:36:18;;;;;;;;;13.50;13.50;;;;;;;;5042445;27;111919;-78
2021/10/22 19:38:44;;;;;;;;;16.75;15.25;;;;;;;;5057381;27;114628;-80
2021/10/22 19:41:09;;;;;;;;;20.75;20.50;;;;;;;;5045503;27;112489;-84
2021/10/22 19:43:36;;;;;;;;;22.75;18.75;;;;;;;;5042107;27;112431;-74
2021/10/22 19:46:01;;;;;;;;;20.75;19.00;;;;;;;;5052858;27;115618;-79
2021/10/22 19:48:27;;;;;;;;;23.00;20.25;;;;;;;;5032743;27;112825;-82
2021/10/22 19:50:52;;;;;;;;;21.00;21.00;;;;;;;;5031118;27;112390;-81
2021/10/22 19:53:17;;;;;;;;;22.25;21.75;;;;;;;;5033319;27;112620;-78
2021/10/22 19:55:43;;;;;;;;;21.00;17.00;;;;;;;;5030939;27;112220;-80
2021/10/22 19:58:09;;;;;;;;;24.25;22.25;;;;;;;;5023388;28;112139;-77
2021/10/22 20:00:36;;;;;;;;;27.75;25.25;;;;;;;;5028640;27;112521;-78
2021/10/22 20:03:02;;;;;;;;;26.50;24.00;;;;;;;;5034759;27;113643;-81
2021/10/22 20:05:27;;;;;;;;;23.00;23.00;;;;;;;;5022782;27;112383;-80
2021/10/22 20:07:53;;;;;;;;;21.50;20.75;;;;;;;;5022612;27;112287;-78
2021/10/22 20:10:19;;;;;;;;;24.50;19.50;;;;;;;;5021534;28;113303;-80
2021/10/22 20:12:44;;;;;;;;;23.00;21.25;;;;;;;;5021122;28;112642;-78
2021/10/22 20:15:09;;;;;;;;;25.25;21.00;;;;;;;;5022265;28;111912;-80
2021/10/22 20:17:36;;;;;;;;;18.00;16.25;;;;;;;;5022221;28;112295;-78
2021/10/22 20:20:01;;;;;;;;;22.25;20.00;;;;;;;;5037658;27;115409;-77
2021/10/22 20:22:26;;;;;;;;;27.00;21.75;;;;;;;;5022379;28;111715;-76
2021/10/22 20:24:52;;;;;;;;;27.75;27.00;;;;;;;;5024517;28;111949;-80
2021/10/22 20:27:17;;;;;;;;;28.75;26.25;;;;;;;;5022190;28;112034;-81
2021/10/22 20:29:45;;;;;;;;;29.50;25.00;;;;;;;;5023437;28;112353;-77
2021/10/22 20:32:10;;;;;;;;;26.75;24.50;;;;;;;;5028570;27;113114;-76
2021/10/22 20:34:36;;;;;;;;;28.50;26.75;;;;;;;;5032298;27;113159;-75
2021/10/22 20:37:01;;;;;;;;;30.75;29.50;;;;;;;;5031267;27;112158;-75
2021/10/22 20:39:27;;;;;;;;;28.75;25.75;;;;;;;;5031241;27;112487;-75
2021/10/22 20:41:52;;;;;;;;;26.00;23.00;;;;;;;;5031925;27;112001;-76
2021/10/22 20:44:18;;;;;;;;;18.25;17.00;;;;;;;;5032295;27;112245;-75
2021/10/22 20:46:43;;;;;;;;;21.00;20.50;;;;;;;;5033483;27;112564;-80
2021/10/22 20:59:41;;;;;;;;;29.00;26.25;;;;;;;;5040703;27;112412;-76
2021/10/22 21:02:07;;;;;;;;;24.50;23.50;;;;;;;;5042123;27;112158;-77
2021/10/22 21:04:33;;;;;;;;;30.75;26.75;;;;;;;;5041915;27;112649;-80
2021/10/22 21:06:59;;;;;;;;;30.50;27.25;;;;;;;;5041086;27;112427;-81
2021/10/22 21:09:28;;;;;;;;;32.50;25.75;;;;;;;;5034006;27;111795;-76
2021/10/22 21:11:53;;;;;;;;;39.50;30.50;;;;;;;;5020912;27;112448;-74
2021/10/22 21:14:18;;;;;;;;;30.00;25.75;;;;;;;;5020285;28;112253;-80
2021/10/22 21:16:45;;;;;;;;;34.00;34.00;;;;;;;;5021604;27;112130;-81
2021/10/22 21:19:10;;;;;;;;;28.00;27.00;;;;;;;;5019567;27;113374;-81
2021/10/22 21:21:36;;;;;;;;;30.25;29.25;;;;;;;;5020580;27;111932;-81
2021/10/22 21:24:01;;;;;;;;;25.75;24.75;;;;;;;;5021365;27;112324;-80
2021/10/22 21:26:26;;;;;;;;;36.00;30.75;;;;;;;;5020774;27;112810;-82
2021/10/22 21:28:51;;;;;;;;;36.00;31.25;;;;;;;;5025556;27;111963;-81
2021/10/22 21:31:18;;;;;;;;;35.00;31.25;;;;;;;;5020343;28;112378;-80
2021/10/22 21:33:44;;;;;;;;;24.75;24.00;;;;;;;;5020835;27;112459;-80
2021/10/22 21:36:09;;;;;;;;;30.00;26.25;;;;;;;;5021092;27;112213;-81
2021/10/22 21:38:35;;;;;;;;;33.75;30.50;;;;;;;;5018818;28;112461;-82
2021/10/22 21:41:00;;;;;;;;;34.50;31.25;;;;;;;;5017636;28;112209;-75
2021/10/22 21:43:25;;;;;;;;;31.25;28.50;;;;;;;;5020168;27;112112;-75
2021/10/22 21:45:51;;;;;;;;;34.75;33.25;;;;;;;;5019987;28;112902;-76
2021/10/22 21:51:01;;;;;;;;;37.50;31.00;;;;;;;;5729461;22;114060;-72
2021/10/22 21:53:28;;;;;;;;;34.50;29.50;;;;;;;;4941511;28;111899;-72
2021/10/22 21:55:53;;;;;;;;;28.75;23.25;;;;;;;;4941492;28;113134;-71
2021/10/22 21:58:18;;;;;;;;;26.00;21.25;;;;;;;;4940552;28;113078;-72
2021/10/22 22:00:46;;;;;;;;;32.75;27.75;;;;;;;;4941358;28;112324;-72
2021/10/22 22:03:11;;;;;;;;;32.50;27.00;;;;;;;;4941777;28;112486;-73
2021/10/22 22:05:37;;;;;;;;;43.00;35.50;;;;;;;;4940601;28;112548;-72
2021/10/22 22:08:03;;;;;;;;;43.50;39.00;;;;;;;;4941694;28;111905;-72
2021/10/22 22:10:29;;;;;;;;;42.50;37.00;;;;;;;;4941459;28;112194;-72
2021/10/22 22:12:55;;;;;;;;;44.00;38.00;;;;;;;;4943859;28;113973;-72
2021/10/22 22:15:21;;;;;;;;;36.75;35.00;;;;;;;;4941363;28;113248;-72
2021/10/22 22:17:46;;;;;;;;;34.00;31.75;;;;;;;;4940949;28;112293;-72
2021/10/22 22:20:12;;;;;;;;;41.25;34.00;;;;;;;;4941190;28;111861;-71
2021/10/22 22:22:37;;;;;;;;;37.00;29.25;;;;;;;;4941781;28;112223;-72
2021/10/22 22:25:03;;;;;;;;;38.25;35.00;;;;;;;;4940723;28;113453;-71
2021/10/22 22:27:29;;;;;;;;;38.75;30.25;;;;;;;;4941325;28;112111;-73
2021/10/22 22:29:54;;;;;;;;;39.00;32.00;;;;;;;;4941131;28;112604;-72
2021/10/22 22:32:19;;;;;;;;;31.25;30.00;;;;;;;;4938494;28;115969;-72
2021/10/22 22:34:45;;;;;;;;;32.00;30.50;;;;;;;;4944967;28;112078;-74
2021/10/22 22:37:10;;;;;;;;;31.75;27.75;;;;;;;;4955203;28;114197;-73
2021/10/22 22:39:35;;;;;;;;;32.50;27.75;;;;;;;;4941576;28;112146;-72
2021/10/22 22:42:01;;;;;;;;;19.50;14.25;;;;;;;;4941048;28;112478;-72
2021/10/22 22:44:27;;;;;;;;;28.50;28.00;;;;;;;;4939958;28;112583;-73
2021/10/22 22:46:52;;;;;;;;;29.25;26.75;;;;;;;;4940971;28;111945;-73
2021/10/22 22:49:17;;;;;;;;;28.25;27.25;;;;;;;;4940879;28;112327;-72
2021/10/22 22:51:43;;;;;;;;;34.25;26.25;;;;;;;;4939336;28;112593;-73
2021/10/22 22:54:11;;;;;;;;;22.75;22.25;;;;;;;;4955334;28;112070;-72
2021/10/22 22:56:36;;;;;;;;;27.75;26.00;;;;;;;;4943548;28;112004;-73
2021/10/22 22:59:02;;;;;;;;;34.00;30.00;;;;;;;;4937695;28;112350;-73
2021/10/22 23:01:28;;;;;;;;;27.25;23.75;;;;;;;;4939467;28;114493;-73
2021/10/22 23:03:53;;;;;;;;;26.25;24.25;;;;;;;;4940308;28;112802;-73
2021/10/22 23:06:19;;;;;;;;;32.75;26.75;;;;;;;;4941431;28;112480;-73
2021/10/22 23:08:44;;;;;;;;;28.25;25.50;;;;;;;;4941137;28;111924;-72
2021/10/22 23:11:09;;;;;;;;;23.25;17.75;;;;;;;;4938894;28;114211;-74
2021/10/22 23:13:35;;;;;;;;;27.50;25.75;;;;;;;;4940856;28;112102;-72
2021/10/22 23:16:00;;;;;;;;;30.75;24.00;;;;;;;;4941423;28;112159;-72
2021/10/22 23:18:25;;;;;;;;;29.25;24.75;;;;;;;;4943392;28;112016;-72
